createdAt,value
2022-10-24T00:01:48.774Z,3.23
2022-10-24T00:04:10.272Z,3.73
2022-10-24T00:06:31.783Z,3.80
2022-10-24T00:08:53.317Z,3.70
2022-10-24T00:11:21.274Z,4.40
2022-10-24T00:13:43.449Z,3.83
2022-10-24T00:16:05.611Z,4.57
2022-10-24T00:18:27.107Z,3.73
2022-10-24T00:20:48.690Z,3.47
2022-10-24T00:23:10.742Z,4.20
2022-10-24T00:25:32.376Z,3.90
2022-10-24T00:27:53.922Z,4.10
2022-10-24T00:30:15.423Z,3.73
2022-10-24T00:32:36.933Z,4.83
2022-10-24T00:34:58.428Z,4.80
2022-10-24T00:39:42.384Z,4.60
2022-10-24T00:42:04.269Z,4.87
2022-10-24T00:44:29.353Z,4.70
2022-10-24T00:47:08.187Z,5.00
2022-10-24T00:49:43.867Z,4.83
2022-10-24T00:52:08.937Z,4.67
2022-10-24T00:54:30.537Z,4.80
2022-10-24T00:57:24.760Z,4.40
2022-10-24T00:59:49.504Z,4.80
2022-10-24T01:02:11.068Z,4.80
2022-10-24T01:04:32.595Z,5.13
2022-10-24T01:07:14.866Z,5.20
2022-10-24T01:09:51.048Z,4.80
2022-10-24T01:12:21.535Z,5.27
2022-10-24T01:15:15.972Z,4.33
2022-10-24T01:18:08.610Z,5.23
2022-10-24T01:20:54.641Z,4.40
2022-10-24T01:23:25.268Z,5.30
2022-10-24T01:25:55.406Z,4.80
2022-10-24T01:28:22.582Z,4.73
2022-10-24T01:30:49.374Z,4.63
2022-10-24T01:33:30.642Z,4.87
2022-10-24T01:36:02.189Z,3.83
2022-10-24T01:38:30.011Z,4.73
2022-10-24T01:40:57.568Z,4.80
2022-10-24T01:43:27.348Z,5.03
2022-10-24T01:45:54.634Z,4.83
2022-10-24T01:48:19.905Z,4.60
2022-10-24T01:50:45.060Z,4.67
2022-10-24T01:53:08.979Z,4.83
2022-10-24T01:55:32.634Z,5.03
2022-10-24T01:57:54.129Z,4.80
2022-10-24T02:00:22.458Z,4.53
2022-10-24T02:02:46.941Z,4.70
2022-10-24T02:05:25.862Z,4.77
2022-10-24T02:07:51.226Z,5.13
2022-10-24T02:10:20.812Z,4.70
2022-10-24T02:12:51.992Z,5.17
2022-10-24T02:15:38.515Z,4.43
2022-10-24T02:18:00.762Z,4.60
2022-10-24T02:20:29.891Z,4.63
2022-10-24T02:23:00.938Z,4.47
2022-10-24T02:25:27.303Z,5.07
2022-10-24T02:28:03.684Z,4.53
2022-10-24T02:30:26.887Z,4.87
2022-10-24T02:32:57.783Z,4.67
2022-10-24T02:35:32.747Z,4.50
2022-10-24T02:38:02.504Z,4.57
2022-10-24T02:40:24.309Z,4.60
2022-10-24T02:42:49.130Z,4.70
2022-10-24T02:45:12.857Z,4.13
2022-10-24T02:47:35.414Z,4.60
2022-10-24T02:49:57.071Z,4.30
2022-10-24T02:52:19.386Z,4.40
2022-10-24T02:54:40.919Z,4.23
2022-10-24T02:57:04.142Z,4.23
2022-10-24T02:59:25.645Z,4.93
2022-10-24T03:01:47.262Z,4.77
2022-10-24T03:04:08.832Z,4.60
2022-10-24T03:06:30.354Z,4.13
2022-10-24T03:08:51.935Z,4.70
2022-10-24T03:11:13.542Z,4.17
2022-10-24T03:13:35.144Z,4.47
2022-10-24T03:15:56.616Z,4.63
2022-10-24T03:18:18.198Z,6.83
2022-10-24T03:20:39.678Z,5.03
2022-10-24T03:23:01.188Z,4.80
2022-10-24T03:25:22.778Z,5.03
2022-10-24T03:27:44.547Z,5.13
2022-10-24T03:30:06.776Z,5.33
2022-10-24T03:32:28.408Z,4.77
2022-10-24T03:34:49.927Z,5.23
2022-10-24T03:37:11.657Z,5.10
2022-10-24T03:39:33.125Z,4.43
2022-10-24T03:41:54.582Z,4.67
2022-10-24T03:44:16.068Z,5.80
2022-10-24T03:46:37.583Z,6.33
2022-10-24T03:48:59.244Z,6.00
2022-10-24T03:51:20.808Z,5.27
2022-10-24T03:53:42.386Z,5.57
2022-10-24T03:56:04.539Z,5.33
2022-10-24T03:58:26.416Z,4.93
2022-10-24T04:00:48.010Z,4.90
2022-10-24T04:03:09.998Z,5.07
2022-10-24T04:05:31.544Z,5.83
2022-10-24T04:07:53.061Z,5.57
2022-10-24T04:10:14.769Z,4.53
2022-10-24T04:12:36.317Z,4.70
2022-10-24T04:15:01.017Z,4.60
2022-10-24T04:17:25.841Z,5.00
2022-10-24T04:19:47.433Z,4.37
2022-10-24T04:22:09.161Z,4.17
2022-10-24T04:24:30.788Z,4.63
2022-10-24T04:26:52.443Z,4.70
2022-10-24T04:29:14.000Z,3.70
2022-10-24T04:31:35.535Z,4.43
2022-10-24T04:33:57.084Z,4.10
2022-10-24T04:36:18.730Z,4.60
2022-10-24T04:38:40.744Z,4.77
2022-10-24T04:41:02.353Z,4.70
2022-10-24T04:43:25.003Z,4.80
2022-10-24T04:45:47.033Z,5.00
2022-10-24T04:48:08.759Z,4.97
2022-10-24T04:50:30.234Z,5.10
2022-10-24T04:52:51.723Z,5.00
2022-10-24T04:55:13.254Z,5.10
2022-10-24T04:57:34.773Z,5.07
2022-10-24T04:59:56.222Z,5.90
2022-10-24T05:02:17.835Z,5.80
2022-10-24T05:04:39.356Z,5.67
2022-10-24T05:07:00.868Z,5.47
2022-10-24T05:09:22.342Z,5.53
2022-10-24T05:11:43.831Z,8.17
2022-10-24T05:14:05.295Z,7.53
2022-10-24T05:16:26.789Z,7.20
2022-10-24T05:18:48.222Z,6.13
2022-10-24T05:21:09.826Z,8.27
2022-10-24T05:23:31.336Z,8.77
2022-10-24T05:25:53.136Z,6.43
2022-10-24T05:28:14.669Z,5.97
2022-10-24T05:30:36.202Z,6.90
2022-10-24T05:32:57.700Z,7.20
2022-10-24T05:35:19.268Z,7.27
2022-10-24T05:37:40.869Z,7.33
2022-10-24T05:40:02.383Z,6.53
2022-10-24T05:42:23.961Z,25.27
2022-10-24T05:44:45.525Z,18.33
2022-10-24T05:47:07.116Z,7.63
2022-10-24T05:49:28.614Z,4.67
2022-10-24T05:51:50.127Z,3.97
2022-10-24T05:56:38.098Z,4.00
2022-10-24T05:58:59.566Z,3.53
2022-10-24T06:01:21.101Z,3.87
2022-10-24T06:03:42.850Z,3.47
2022-10-24T06:06:07.696Z,3.27
2022-10-24T06:08:29.172Z,3.53
2022-10-24T06:10:51.092Z,3.88
2022-10-24T06:13:12.570Z,5.03
2022-10-24T06:15:34.038Z,7.30
2022-10-24T06:17:55.521Z,5.33
2022-10-24T06:20:17.339Z,5.13
2022-10-24T06:22:39.080Z,5.20
2022-10-24T06:25:01.641Z,8.90
2022-10-24T06:27:23.594Z,7.70
2022-10-24T06:29:45.375Z,5.07
2022-10-24T06:32:06.908Z,4.65
2022-10-24T06:34:28.489Z,6.30
2022-10-24T06:36:50.052Z,5.93
2022-10-24T06:39:11.534Z,3.30
2022-10-24T06:41:33.027Z,3.63
2022-10-24T06:43:56.378Z,3.20
2022-10-24T06:46:18.002Z,3.40
2022-10-24T06:48:39.772Z,3.33
2022-10-24T06:51:01.747Z,3.13
2022-10-24T06:53:23.237Z,2.90
2022-10-24T06:55:44.722Z,4.13
2022-10-24T06:58:07.104Z,4.28
2022-10-24T07:02:54.961Z,3.35
2022-10-24T07:05:16.620Z,3.10
2022-10-24T07:07:38.695Z,3.05
2022-10-24T07:10:00.267Z,3.42
2022-10-24T07:12:22.939Z,3.50
2022-10-24T07:14:44.428Z,4.00
2022-10-24T07:17:06.181Z,3.42
2022-10-24T07:19:27.686Z,3.25
2022-10-24T07:21:49.235Z,3.78
2022-10-24T07:24:13.001Z,3.25
2022-10-24T07:26:34.496Z,3.30
2022-10-24T07:31:30.348Z,4.13
2022-10-24T07:33:52.946Z,4.60
2022-10-24T07:36:19.994Z,4.70
2022-10-24T07:38:41.481Z,5.55
2022-10-24T07:41:04.595Z,4.47
2022-10-24T07:43:26.122Z,3.45
2022-10-24T07:45:50.649Z,2.83
2022-10-24T07:48:13.706Z,2.72
2022-10-24T07:50:44.587Z,3.08
2022-10-24T07:53:06.054Z,2.80
2022-10-24T07:55:27.638Z,2.65
2022-10-24T07:57:49.175Z,3.20
2022-10-24T08:00:11.241Z,3.20
2022-10-24T08:02:33.033Z,3.03
2022-10-24T08:04:54.546Z,3.00
2022-10-24T08:07:16.020Z,3.17
2022-10-24T08:09:38.300Z,3.42
2022-10-24T08:11:59.751Z,2.90
2022-10-24T08:14:21.332Z,3.40
2022-10-24T08:16:42.888Z,3.20
2022-10-24T08:19:04.395Z,2.78
2022-10-24T08:21:26.309Z,2.88
2022-10-24T08:23:52.902Z,3.15
2022-10-24T08:26:17.040Z,2.85
2022-10-24T08:28:39.151Z,2.85
2022-10-24T08:31:03.869Z,3.15
2022-10-24T08:33:25.664Z,2.67
2022-10-24T08:35:47.142Z,3.25
2022-10-24T08:38:08.800Z,2.92
2022-10-24T08:40:30.429Z,3.15
2022-10-24T08:42:52.457Z,2.70
2022-10-24T08:45:22.430Z,2.67
2022-10-24T08:48:01.091Z,2.83
2022-10-24T08:50:31.897Z,2.90
2022-10-24T08:53:02.066Z,2.92
2022-10-24T08:55:48.151Z,2.67
2022-10-24T08:58:16.257Z,2.90
2022-10-24T09:00:42.612Z,2.90
2022-10-24T09:03:26.175Z,2.70
2022-10-24T09:05:58.784Z,2.65
2022-10-24T09:08:35.953Z,3.38
2022-10-24T09:11:01.036Z,3.03
2022-10-24T09:13:23.919Z,2.83
2022-10-24T09:15:47.275Z,2.30
2022-10-24T09:18:19.667Z,2.88
2022-10-24T09:20:41.145Z,2.53
2022-10-24T09:23:05.699Z,2.60
2022-10-24T09:25:31.668Z,2.53
2022-10-24T09:27:53.165Z,2.80
2022-10-24T09:30:18.626Z,2.40
2022-10-24T09:32:42.530Z,2.60
2022-10-24T09:35:20.800Z,2.75
2022-10-24T09:37:51.278Z,2.47
2022-10-24T09:40:22.208Z,2.65
2022-10-24T09:43:01.409Z,2.88
2022-10-24T09:45:46.434Z,2.92
2022-10-24T09:48:25.963Z,2.50
2022-10-24T09:50:52.712Z,2.50
2022-10-24T09:53:28.094Z,3.00
2022-10-24T09:55:53.081Z,2.30
2022-10-24T09:58:21.333Z,2.50
2022-10-24T10:00:42.813Z,2.65
2022-10-24T10:03:26.808Z,2.50
2022-10-24T10:05:50.733Z,2.30
2022-10-24T10:08:20.009Z,2.53
2022-10-24T10:10:41.628Z,2.90
2022-10-24T10:13:06.078Z,2.50
2022-10-24T10:15:38.010Z,2.55
2022-10-24T10:18:22.107Z,2.88
2022-10-24T10:20:43.595Z,2.45
2022-10-24T10:23:27.004Z,2.55
2022-10-24T10:25:48.461Z,2.78
2022-10-24T10:28:22.639Z,2.38
2022-10-24T10:30:49.916Z,2.63
2022-10-24T10:33:21.826Z,2.90
2022-10-24T10:35:48.343Z,3.38
2022-10-24T10:38:47.455Z,3.13
2022-10-24T10:41:23.165Z,2.75
2022-10-24T10:43:44.617Z,3.20
2022-10-24T10:46:14.915Z,3.20
2022-10-24T10:48:47.702Z,3.40
2022-10-24T10:51:09.164Z,3.38
2022-10-24T10:53:50.874Z,3.10
2022-10-24T10:56:21.327Z,3.10
2022-10-24T10:59:06.575Z,2.83
2022-10-24T11:01:44.058Z,3.00
2022-10-24T11:04:36.596Z,3.10
2022-10-24T11:07:37.963Z,3.20
2022-10-24T11:10:06.096Z,2.90
2022-10-24T11:12:36.663Z,3.35
2022-10-24T11:15:03.587Z,3.58
2022-10-24T11:17:59.676Z,3.60
2022-10-24T11:20:59.438Z,2.95
2022-10-24T11:23:41.122Z,3.22
2022-10-24T11:26:13.098Z,3.05
2022-10-24T11:29:12.552Z,3.28
2022-10-24T11:32:16.379Z,3.20
2022-10-24T11:34:45.448Z,2.88
2022-10-24T11:37:24.462Z,3.35
2022-10-24T11:40:18.643Z,2.90
2022-10-24T11:43:19.001Z,2.78
2022-10-24T11:45:58.978Z,2.90
2022-10-24T11:48:35.560Z,3.15
2022-10-24T11:51:09.621Z,2.95
2022-10-24T11:53:34.386Z,3.00
2022-10-24T11:56:23.462Z,2.90
2022-10-24T11:58:59.277Z,3.20
2022-10-24T12:01:48.346Z,3.00
2022-10-24T12:04:58.139Z,3.00
2022-10-24T12:07:34.208Z,3.05
2022-10-24T12:10:25.574Z,3.13
2022-10-24T12:13:20.086Z,2.92
2022-10-24T12:16:16.196Z,2.95
2022-10-24T12:18:45.626Z,2.90
2022-10-24T12:21:25.567Z,2.72
2022-10-24T12:23:56.624Z,2.70
2022-10-24T12:26:20.744Z,2.50
2022-10-24T12:28:43.559Z,2.25
2022-10-24T12:31:14.841Z,2.33
2022-10-24T12:33:36.618Z,2.63
2022-10-24T12:35:58.767Z,2.22
2022-10-24T12:38:29.145Z,2.42
2022-10-24T12:40:58.603Z,2.20
2022-10-24T12:43:47.464Z,2.15
2022-10-24T12:46:18.813Z,2.50
2022-10-24T12:48:59.666Z,2.30
2022-10-24T12:51:34.628Z,2.45
2022-10-24T12:54:11.108Z,2.20
2022-10-24T12:56:34.269Z,2.20
2022-10-24T12:59:18.218Z,2.60
2022-10-24T13:01:40.733Z,2.00
2022-10-24T13:04:05.026Z,2.13
2022-10-24T13:06:51.099Z,2.70
2022-10-24T13:09:41.878Z,2.17
2022-10-24T13:12:09.241Z,2.30
2022-10-24T13:15:00.854Z,2.70
2022-10-24T13:17:36.224Z,2.20
2022-10-24T13:20:21.407Z,2.58
2022-10-24T13:22:44.796Z,2.15
2022-10-24T13:25:33.802Z,2.50
2022-10-24T13:28:24.742Z,2.10
2022-10-24T13:30:49.657Z,2.45
2022-10-24T13:33:30.278Z,2.40
2022-10-24T13:35:53.157Z,1.90
2022-10-24T13:38:16.110Z,1.90
2022-10-24T13:40:42.607Z,2.10
2022-10-24T13:43:19.487Z,2.33
2022-10-24T13:46:00.317Z,2.40
2022-10-24T13:48:25.604Z,2.28
2022-10-24T13:51:02.651Z,2.00
2022-10-24T13:53:31.025Z,2.03
2022-10-24T13:55:53.499Z,1.95
2022-10-24T13:58:23.176Z,2.72
2022-10-24T14:00:51.144Z,2.42
2022-10-24T14:03:19.953Z,2.25
2022-10-24T14:05:48.399Z,2.45
2022-10-24T14:08:39.353Z,2.22
2022-10-24T14:11:04.804Z,2.50
2022-10-24T14:13:28.524Z,2.33
2022-10-24T14:15:53.872Z,2.60
2022-10-24T14:18:15.452Z,2.08
2022-10-24T14:20:37.771Z,2.03
2022-10-24T14:22:59.771Z,2.60
2022-10-24T14:25:24.253Z,2.17
2022-10-24T14:27:46.263Z,2.28
2022-10-24T14:30:18.383Z,2.33
2022-10-24T14:32:39.856Z,2.80
2022-10-24T14:37:35.882Z,2.53
2022-10-24T14:39:58.645Z,2.35
2022-10-24T14:42:20.987Z,2.78
2022-10-24T14:44:46.336Z,2.30
2022-10-24T14:47:28.354Z,2.58
2022-10-24T14:49:50.399Z,2.83
2022-10-24T14:52:26.965Z,2.38
2022-10-24T14:54:58.769Z,2.78
2022-10-24T14:57:22.805Z,2.70
2022-10-24T14:59:46.717Z,2.35
2022-10-24T15:02:37.618Z,2.65
2022-10-24T15:05:20.019Z,2.55
2022-10-24T15:07:57.228Z,2.55
2022-10-24T15:10:39.340Z,2.30
2022-10-24T15:13:13.890Z,2.67
2022-10-24T15:15:44.222Z,2.22
2022-10-24T15:18:05.769Z,2.67
2022-10-24T15:20:29.992Z,2.03
2022-10-24T15:22:56.405Z,2.50
2022-10-24T15:27:48.742Z,2.20
2022-10-24T15:30:21.343Z,2.35
2022-10-24T15:32:43.427Z,2.33
2022-10-24T15:35:05.511Z,2.47
2022-10-24T15:37:28.562Z,2.20
2022-10-24T15:39:50.922Z,2.33
2022-10-24T15:42:12.514Z,1.92
2022-10-24T15:44:35.363Z,2.40
2022-10-24T15:46:56.944Z,2.78
2022-10-24T15:49:18.549Z,2.45
2022-10-24T15:51:45.943Z,2.50
2022-10-24T15:54:12.062Z,2.40
2022-10-24T15:56:33.570Z,2.53
2022-10-24T15:58:55.952Z,2.40
2022-10-24T16:01:31.124Z,2.20
2022-10-24T16:03:52.749Z,2.45
2022-10-24T16:06:14.248Z,2.40
2022-10-24T16:08:35.782Z,2.28
2022-10-24T16:10:57.363Z,2.38
2022-10-24T16:13:21.278Z,2.42
2022-10-24T16:15:43.656Z,2.50
2022-10-24T16:18:06.735Z,4.20
2022-10-24T16:20:28.283Z,3.50
2022-10-24T16:22:50.188Z,3.42
2022-10-24T16:25:26.520Z,3.08
2022-10-24T16:27:48.833Z,2.40
2022-10-24T16:30:12.110Z,2.05
2022-10-24T16:32:33.641Z,2.58
2022-10-24T16:34:57.570Z,2.90
2022-10-24T16:37:20.322Z,2.80
2022-10-24T16:39:42.413Z,3.60
2022-10-24T16:42:05.350Z,3.90
2022-10-24T16:44:27.743Z,3.80
2022-10-24T16:46:52.134Z,4.93
2022-10-24T16:49:13.664Z,5.60
2022-10-24T16:51:35.633Z,4.60
2022-10-24T16:53:59.875Z,3.55
2022-10-24T16:56:21.356Z,4.68
2022-10-24T16:58:43.482Z,6.50
2022-10-24T17:01:10.326Z,3.17
2022-10-24T17:03:32.303Z,2.88
2022-10-24T17:05:53.822Z,3.60
2022-10-24T17:08:15.907Z,3.60
2022-10-24T17:10:38.228Z,3.20
2022-10-24T17:13:01.904Z,2.78
2022-10-24T17:15:23.406Z,3.05
2022-10-24T17:17:45.522Z,3.33
2022-10-24T17:20:12.296Z,2.83
2022-10-24T17:25:00.636Z,2.58
2022-10-24T17:27:22.406Z,2.92
2022-10-24T17:32:15.605Z,2.50
2022-10-24T17:34:37.435Z,2.78
2022-10-24T17:37:05.501Z,2.42
2022-10-24T17:39:49.664Z,3.33
2022-10-24T17:42:11.207Z,2.70
2022-10-24T17:44:32.932Z,2.88
2022-10-24T17:46:58.220Z,2.78
2022-10-24T17:49:21.700Z,2.63
2022-10-24T17:51:47.274Z,2.78
2022-10-24T17:54:10.789Z,3.03
2022-10-24T17:56:32.587Z,2.80
2022-10-24T17:58:54.205Z,2.75
2022-10-24T18:01:15.816Z,2.85
2022-10-24T18:03:37.374Z,3.10
2022-10-24T18:06:03.669Z,2.80
2022-10-24T18:08:25.377Z,2.35
2022-10-24T18:10:46.853Z,2.42
2022-10-24T18:13:09.272Z,2.50
2022-10-24T18:15:31.148Z,2.50
2022-10-24T18:17:52.661Z,2.75
2022-10-24T18:20:15.686Z,2.70
2022-10-24T18:22:38.575Z,2.45
2022-10-24T18:25:00.049Z,2.47
2022-10-24T18:27:21.595Z,2.47
2022-10-24T18:29:44.106Z,2.38
2022-10-24T18:32:05.729Z,2.30
2022-10-24T18:34:27.316Z,2.33
2022-10-24T18:36:48.890Z,2.17
2022-10-24T18:39:10.492Z,2.42
2022-10-24T18:41:43.097Z,2.05
2022-10-24T18:44:33.412Z,2.45
2022-10-24T18:47:06.237Z,2.28
2022-10-24T18:49:29.477Z,2.30
2022-10-24T18:52:01.087Z,1.92
2022-10-24T18:54:22.892Z,2.35
2022-10-24T18:56:46.609Z,2.20
2022-10-24T18:59:16.908Z,2.45
2022-10-24T19:02:13.909Z,2.38
2022-10-24T19:04:41.337Z,2.13
2022-10-24T19:07:03.934Z,2.65
2022-10-24T19:09:26.373Z,1.88
2022-10-24T19:11:48.970Z,2.13
2022-10-24T19:14:10.800Z,2.00
2022-10-24T19:16:32.692Z,2.63
2022-10-24T19:18:56.904Z,2.05
2022-10-24T19:21:18.611Z,2.35
2022-10-24T19:23:40.054Z,2.00
2022-10-24T19:26:01.600Z,1.73
2022-10-24T19:28:23.078Z,2.20
2022-10-24T19:30:45.932Z,2.42
2022-10-24T19:33:07.478Z,1.88
2022-10-24T19:35:29.049Z,2.15
2022-10-24T19:37:50.522Z,2.03
2022-10-24T19:40:12.452Z,2.00
2022-10-24T19:42:34.706Z,2.40
2022-10-24T19:44:56.707Z,2.00
2022-10-24T19:47:18.219Z,2.00
2022-10-24T19:49:39.721Z,2.17
2022-10-24T19:52:01.804Z,2.10
2022-10-24T19:54:23.395Z,2.28
2022-10-24T19:56:44.970Z,1.95
2022-10-24T19:59:06.470Z,2.00
2022-10-24T20:01:30.155Z,2.28
2022-10-24T20:03:52.039Z,1.92
2022-10-24T20:06:14.037Z,1.85
2022-10-24T20:08:36.206Z,2.53
2022-10-24T20:10:57.783Z,2.10
2022-10-24T20:13:19.321Z,1.95
2022-10-24T20:15:40.861Z,1.80
2022-10-24T20:18:02.332Z,1.88
2022-10-24T20:20:25.081Z,2.45
2022-10-24T20:22:46.874Z,2.00
2022-10-24T20:25:08.718Z,1.80
2022-10-24T20:27:30.208Z,2.10
2022-10-24T20:29:51.721Z,1.80
2022-10-24T20:32:13.255Z,2.05
2022-10-24T20:34:34.764Z,2.03
2022-10-24T20:36:56.321Z,1.83
2022-10-24T20:39:21.102Z,1.73
2022-10-24T20:41:43.288Z,2.05
2022-10-24T20:44:07.013Z,2.05
2022-10-24T20:46:28.841Z,1.65
2022-10-24T20:48:50.877Z,2.13
2022-10-24T20:51:14.499Z,1.90
2022-10-24T20:53:36.130Z,2.22
2022-10-24T20:55:57.706Z,2.15
2022-10-24T20:58:19.172Z,1.85
2022-10-24T21:03:12.234Z,1.55
2022-10-24T21:05:35.279Z,1.85
2022-10-24T21:07:56.746Z,2.20
2022-10-24T21:10:18.297Z,2.05
2022-10-24T21:12:43.837Z,2.55
2022-10-24T21:15:08.827Z,1.83
2022-10-24T21:17:30.369Z,2.03
2022-10-24T21:19:51.971Z,1.98
2022-10-24T21:22:13.704Z,2.00
2022-10-24T21:24:35.212Z,2.00
2022-10-24T21:26:56.713Z,1.67
2022-10-24T21:29:32.857Z,1.70
2022-10-24T21:31:55.334Z,1.90
2022-10-24T21:34:18.278Z,2.13
2022-10-24T21:36:39.759Z,1.88
2022-10-24T21:39:01.312Z,2.00
2022-10-24T21:41:23.523Z,2.13
2022-10-24T21:43:45.710Z,1.88
2022-10-24T21:46:08.676Z,1.90
2022-10-24T21:48:31.432Z,1.95
2022-10-24T21:50:52.907Z,1.93
2022-10-24T21:53:14.378Z,2.33
2022-10-24T21:55:35.852Z,2.20
2022-10-24T21:57:57.326Z,2.58
2022-10-24T22:00:18.832Z,2.33
2022-10-24T22:02:40.367Z,1.90
2022-10-24T22:05:01.904Z,2.53
2022-10-24T22:07:24.691Z,1.57
2022-10-24T22:09:46.229Z,2.27
2022-10-24T22:12:07.758Z,2.47
2022-10-24T22:14:29.267Z,2.33
2022-10-24T22:16:50.913Z,2.20
2022-10-24T22:19:13.833Z,1.60
2022-10-24T22:21:37.899Z,1.87
2022-10-24T22:24:03.547Z,2.10
2022-10-24T22:26:26.167Z,1.97
2022-10-24T22:28:47.762Z,2.17
2022-10-24T22:31:12.995Z,2.43
2022-10-24T22:33:37.491Z,2.40
2022-10-24T22:36:06.866Z,1.70
2022-10-24T22:38:28.584Z,2.33
2022-10-24T22:40:50.335Z,2.07
2022-10-24T22:43:12.217Z,2.40
2022-10-24T22:45:34.152Z,1.97
2022-10-24T22:48:07.241Z,2.10
2022-10-24T22:50:54.863Z,2.20
2022-10-24T22:53:22.236Z,2.53
2022-10-24T22:55:49.579Z,2.53
2022-10-24T22:58:11.404Z,2.47
2022-10-24T23:00:33.157Z,2.60
2022-10-24T23:03:06.803Z,2.60
2022-10-24T23:06:03.967Z,2.50
2022-10-24T23:08:28.534Z,2.30
2022-10-24T23:10:50.239Z,2.20
2022-10-24T23:13:12.012Z,2.77
2022-10-24T23:15:33.829Z,2.40
2022-10-24T23:17:55.588Z,1.90
2022-10-24T23:20:30.267Z,2.27
2022-10-24T23:23:08.957Z,2.57
2022-10-24T23:25:36.862Z,2.27
2022-10-24T23:28:09.315Z,2.63
2022-10-24T23:30:31.125Z,2.30
2022-10-24T23:32:53.016Z,2.47
2022-10-24T23:35:16.363Z,2.10
2022-10-24T23:37:41.090Z,2.50
2022-10-24T23:40:21.472Z,2.30
2022-10-24T23:42:49.894Z,2.72
2022-10-24T23:45:20.470Z,2.27
2022-10-24T23:47:54.761Z,2.33
2022-10-24T23:50:24.977Z,2.67
2022-10-24T23:53:13.958Z,2.30
2022-10-24T23:55:35.723Z,2.47
2022-10-24T23:57:57.323Z,2.37
